Time;durP1;ratioP1;P1;durP2;ratioP2;P2;SDS_P1;SDS_P2;PMS_P1;PMS_P2;Temp;Humidity;BMP_temperature;BMP_pressure;BME280_temperature;BME280_humidity;BME280_pressure;Samples;Min_cycle;Max_cycle;Signal;HPM_P1;HPM_P2
2022/03/15 05:19:42;;;;;;;;;;;4.00;99.90;;;;;;7229733;32;20450;-74
2022/03/15 05:23:45;;;;;;;10.25;5.43;;;4.00;99.90;;;;;;7245931;32;20414;-74
2022/03/15 05:27:47;;;;;;;11.45;6.05;;;4.00;99.90;;;;;;7228114;32;21454;-73
2022/03/15 05:31:49;;;;;;;13.73;5.90;;;4.10;99.90;;;;;;7230342;32;20124;-73
2022/03/15 05:35:51;;;;;;;14.40;6.57;;;4.10;99.90;;;;;;7227893;32;20537;-72
2022/03/15 05:39:53;;;;;;;12.27;5.55;;;4.10;99.90;;;;;;7227832;32;20177;-72
2022/03/15 05:43:55;;;;;;;13.30;6.12;;;4.20;99.90;;;;;;7221864;32;20803;-73
2022/03/15 05:47:57;;;;;;;10.70;6.05;;;4.20;99.90;;;;;;7230144;32;20180;-72
2022/03/15 05:51:58;;;;;;;12.68;5.57;;;4.20;99.90;;;;;;7226035;32;20616;-73
2022/03/15 05:56:00;;;;;;;11.18;5.45;;;4.30;99.90;;;;;;7234728;32;20578;-73
2022/03/15 06:00:04;;;;;;;9.60;5.72;;;4.30;99.90;;;;;;7231197;32;20215;-73
2022/03/15 06:04:07;;;;;;;11.23;6.25;;;4.30;99.90;;;;;;7233915;32;20127;-73
2022/03/15 06:08:10;;;;;;;9.43;5.55;;;4.30;99.90;;;;;;7228668;32;20109;-73
2022/03/15 06:12:12;;;;;;;8.80;4.97;;;4.40;99.90;;;;;;7224727;32;20122;-74
2022/03/15 06:16:14;;;;;;;12.10;5.30;;;4.40;99.90;;;;;;7225199;32;20117;-73
2022/03/15 06:20:18;;;;;;;11.77;5.35;;;4.40;99.90;;;;;;7226704;32;20124;-73
2022/03/15 06:24:19;;;;;;;10.40;5.78;;;4.40;99.90;;;;;;7224608;32;20138;-72
2022/03/15 06:28:21;;;;;;;14.35;7.53;;;4.40;99.90;;;;;;7226256;32;20092;-74
2022/03/15 06:32:23;;;;;;;13.55;5.53;;;4.50;99.90;;;;;;7223479;32;20572;-74
2022/03/15 06:36:25;;;;;;;8.70;4.97;;;4.50;99.90;;;;;;7225457;32;20424;-74
2022/03/15 06:40:29;;;;;;;15.57;6.72;;;4.60;99.90;;;;;;7232018;32;20208;-73
2022/03/15 06:44:31;;;;;;;10.18;5.53;;;4.70;99.90;;;;;;7227486;32;20116;-73
2022/03/15 06:48:33;;;;;;;11.43;4.87;;;4.90;99.90;;;;;;7227705;32;20094;-73
2022/03/15 06:52:36;;;;;;;12.05;5.22;;;5.00;99.90;;;;;;7227574;32;20593;-73
2022/03/15 06:56:40;;;;;;;11.88;4.87;;;5.10;99.90;;;;;;7222288;32;20370;-74
2022/03/15 07:00:49;;;;;;;8.65;4.87;;;5.20;99.90;;;;;;7222859;32;20840;-73
2022/03/15 07:04:51;;;;;;;10.93;5.70;;;5.40;99.90;;;;;;7221671;32;20610;-73
2022/03/15 07:08:55;;;;;;;8.70;4.22;;;5.60;99.90;;;;;;7217991;32;20542;-74
2022/03/15 07:12:56;;;;;;;7.87;3.67;;;5.80;99.90;;;;;;7223491;32;20495;-73
2022/03/15 07:16:59;;;;;;;7.28;3.15;;;6.10;99.90;;;;;;7226357;32;20614;-72
2022/03/15 07:21:00;;;;;;;11.43;3.10;;;6.20;99.90;;;;;;7232200;32;20121;-72
2022/03/15 07:25:02;;;;;;;9.00;2.80;;;6.50;99.90;;;;;;7228360;32;20101;-75
2022/03/15 07:29:04;;;;;;;8.05;3.42;;;6.70;99.90;;;;;;7227053;32;20554;-74
2022/03/15 07:33:06;;;;;;;8.23;2.80;;;6.90;99.90;;;;;;7223457;32;20108;-74
2022/03/15 07:37:08;;;;;;;7.65;2.97;;;7.00;99.90;;;;;;7239278;32;20140;-73
2022/03/15 07:41:09;;;;;;;7.90;2.50;;;7.10;99.90;;;;;;7227524;32;20097;-76
2022/03/15 07:45:12;;;;;;;8.98;2.05;;;7.40;99.90;;;;;;7247397;32;20178;-72
2022/03/15 07:49:18;;;;;;;6.72;2.30;;;7.50;99.90;;;;;;7232626;32;20134;-73
2022/03/15 07:53:29;;;;;;;8.43;2.50;;;7.70;99.90;;;;;;7227414;32;20117;-73
2022/03/15 07:57:31;;;;;;;7.75;2.12;;;7.80;99.90;;;;;;7242327;32;20943;-73
2022/03/15 08:01:34;;;;;;;5.78;2.22;;;7.90;99.90;;;;;;7232991;32;20097;-73
2022/03/15 08:05:36;;;;;;;8.25;2.30;;;8.00;99.90;;;;;;7229492;32;20223;-73
2022/03/15 08:09:38;;;;;;;4.95;1.90;;;8.10;99.90;;;;;;7224576;32;20206;-73
2022/03/15 08:13:40;;;;;;;9.40;2.40;;;8.20;99.90;;;;;;7241341;32;20133;-73
2022/03/15 08:17:42;;;;;;;7.80;2.00;;;8.40;99.90;;;;;;7228118;32;20123;-73
2022/03/15 08:21:44;;;;;;;7.47;2.08;;;8.40;99.90;;;;;;7237544;32;20189;-73
2022/03/15 08:25:46;;;;;;;9.32;2.40;;;8.60;99.90;;;;;;7231356;32;20127;-74
2022/03/15 08:29:48;;;;;;;9.73;1.87;;;8.60;99.90;;;;;;7230908;32;20864;-73
2022/03/15 08:33:50;;;;;;;9.98;2.53;;;8.70;99.90;;;;;;7229040;32;20127;-73
2022/03/15 08:37:53;;;;;;;9.23;2.53;;;8.80;99.90;;;;;;7226851;32;20759;-73
2022/03/15 08:41:55;;;;;;;9.35;2.15;;;8.90;99.90;;;;;;7230562;32;20792;-73
2022/03/15 08:45:58;;;;;;;5.03;2.12;;;9.10;99.90;;;;;;7235789;32;20223;-73
2022/03/15 08:50:09;;;;;;;9.98;2.25;;;9.00;99.90;;;;;;7225489;32;20112;-71
2022/03/15 08:54:12;;;;;;;9.27;2.37;;;9.20;99.90;;;;;;7228607;32;20183;-71
2022/03/15 08:58:13;;;;;;;7.87;2.28;;;9.20;99.90;;;;;;7231838;32;20366;-71
2022/03/15 09:07:19;;;;;;;6.55;2.28;;;9.30;99.90;;;;;;7233865;32;20108;-74
2022/03/15 09:11:21;;;;;;;5.80;2.20;;;9.30;99.90;;;;;;7235869;32;20183;-74
2022/03/15 09:15:23;;;;;;;6.15;2.37;;;9.30;99.90;;;;;;7219517;32;20509;-74
2022/03/15 09:19:25;;;;;;;7.55;3.28;;;9.30;99.90;;;;;;7226533;32;20123;-74
2022/03/15 09:23:27;;;;;;;7.18;2.00;;;9.40;99.90;;;;;;7237981;32;20648;-74
2022/03/15 09:27:29;;;;;;;6.60;2.15;;;9.40;99.90;;;;;;7235257;32;20105;-73
2022/03/15 09:31:31;;;;;;;4.72;1.87;;;9.60;99.90;;;;;;7240616;32;20218;-74
2022/03/15 09:35:35;;;;;;;5.65;2.22;;;9.60;99.90;;;;;;7252391;32;20188;-71
2022/03/15 09:39:37;;;;;;;7.37;2.40;;;9.60;99.90;;;;;;7254120;32;20128;-71
2022/03/15 09:43:41;;;;;;;6.15;2.10;;;9.70;99.90;;;;;;7256520;32;20184;-72
2022/03/15 09:47:59;;;;;;;7.65;2.17;;;9.80;99.90;;;;;;7267178;32;20097;-71
2022/03/15 09:52:02;;;;;;;5.30;2.17;;;9.90;99.90;;;;;;7253642;32;20182;-72
2022/03/15 09:56:04;;;;;;;6.25;2.10;;;9.80;99.90;;;;;;7245420;32;20104;-72
2022/03/15 10:00:07;;;;;;;7.82;2.10;;;9.90;99.90;;;;;;7258781;32;20143;-72
2022/03/15 10:04:08;;;;;;;7.22;2.50;;;10.00;99.90;;;;;;7252551;32;20229;-72
2022/03/15 10:13:14;;;;;;;8.10;2.40;;;10.00;99.90;;;;;;7233315;32;20223;-72
2022/03/15 10:18:16;;;;;;;5.95;2.60;;;10.10;99.90;;;;;;7215451;32;20104;-72
2022/03/15 10:22:21;;;;;;;5.65;1.83;;;10.10;99.90;;;;;;7230275;32;20149;-72
2022/03/15 10:26:27;;;;;;;4.55;2.30;;;10.20;99.90;;;;;;7228077;32;20120;-73
2022/03/15 10:30:30;;;;;;;3.42;1.90;;;10.30;99.90;;;;;;7239572;32;20220;-73
2022/03/15 10:34:32;;;;;;;8.10;2.12;;;10.40;99.90;;;;;;7242391;32;20840;-73
2022/03/15 10:38:48;;;;;;;7.85;2.50;;;10.30;99.90;;;;;;7234927;32;20101;-72
2022/03/15 10:42:49;;;;;;;5.32;1.95;;;10.40;99.90;;;;;;7210796;32;20167;-73
2022/03/15 10:47:07;;;;;;;5.78;1.95;;;10.30;99.90;;;;;;7231629;32;20294;-74
2022/03/15 10:51:14;;;;;;;4.28;1.80;;;10.40;99.90;;;;;;7227704;32;20219;-74
2022/03/15 10:55:27;;;;;;;6.10;1.87;;;10.40;99.90;;;;;;7223300;32;20782;-74
2022/03/15 10:59:29;;;;;;;8.15;2.12;;;10.40;99.90;;;;;;7232853;32;20295;-74
2022/03/15 11:03:31;;;;;;;5.32;2.17;;;10.40;99.90;;;;;;7234464;32;20123;-74
2022/03/15 11:07:47;;;;;;;5.80;2.10;;;10.50;99.90;;;;;;7228599;32;20139;-74
2022/03/15 11:12:05;;;;;;;5.60;2.40;;;10.50;99.90;;;;;;7228578;32;20353;-74
2022/03/15 11:16:07;;;;;;;;;;;10.50;99.90;;;;;;7237440;32;20104;-74
2022/03/15 11:20:09;;;;;;;7.00;2.30;;;10.50;99.90;;;;;;7234013;32;20111;-73
2022/03/15 11:24:14;;;;;;;6.78;2.00;;;10.50;99.90;;;;;;7226265;32;20097;-74
2022/03/15 11:28:23;;;;;;;6.07;2.20;;;10.50;99.90;;;;;;7231475;32;20195;-74
2022/03/15 11:32:25;;;;;;;4.07;2.20;;;10.40;99.90;;;;;;7224312;32;20151;-73
2022/03/15 11:36:28;;;;;;;4.60;2.42;;;10.60;99.90;;;;;;7233580;32;20188;-74
2022/03/15 11:40:31;;;;;;;10.82;2.60;;;10.70;99.90;;;;;;7231773;32;20207;-74
2022/03/15 11:45:00;;;;;;;6.03;2.30;;;10.70;99.90;;;;;;7233807;32;20227;-74
2022/03/15 11:49:57;;;;;;;8.02;2.35;;;10.70;99.90;;;;;;7239171;32;20172;-75
2022/03/15 11:54:06;;;;;;;4.90;2.00;;;10.60;99.90;;;;;;7222410;32;20127;-74
2022/03/15 11:58:10;;;;;;;5.07;2.15;;;10.60;99.90;;;;;;7226429;32;20693;-74
2022/03/15 12:02:12;;;;;;;9.05;2.58;;;10.70;99.90;;;;;;7225771;32;20366;-75
2022/03/15 12:06:23;;;;;;;4.30;2.45;;;10.70;99.90;;;;;;7228708;32;20129;-74
2022/03/15 12:10:28;;;;;;;9.63;2.80;;;10.80;99.90;;;;;;7229326;32;20202;-74
2022/03/15 12:14:52;;;;;;;5.28;2.65;;;10.70;99.90;;;;;;7221490;32;20093;-74
2022/03/15 12:19:13;;;;;;;7.68;2.60;;;10.80;99.90;;;;;;7235413;32;20868;-74
2022/03/15 12:23:26;;;;;;;6.47;2.72;;;11.00;99.90;;;;;;7228885;32;20239;-75
2022/03/15 12:27:28;;;;;;;7.37;2.50;;;11.00;99.90;;;;;;7238738;32;20101;-74
2022/03/15 12:31:41;;;;;;;5.28;2.20;;;10.80;99.90;;;;;;7239201;32;20254;-74
2022/03/15 12:35:44;;;;;;;7.78;2.65;;;10.90;99.90;;;;;;7230509;32;20573;-74
2022/03/15 12:39:54;;;;;;;6.50;3.10;;;10.80;99.90;;;;;;7237115;32;20767;-74
2022/03/15 12:43:56;;;;;;;6.78;2.55;;;10.70;99.90;;;;;;7229425;32;20227;-75
2022/03/15 12:48:08;;;;;;;6.40;2.25;;;10.60;99.90;;;;;;7229886;32;20188;-73
2022/03/15 12:52:40;;;;;;;6.12;2.20;;;10.80;99.90;;;;;;7228523;32;20421;-73
2022/03/15 12:56:48;;;;;;;6.50;2.30;;;11.00;99.90;;;;;;7218539;32;20816;-73
2022/03/15 13:00:52;;;;;;;7.75;2.10;;;11.00;99.90;;;;;;7226857;32;20104;-73
2022/03/15 13:04:54;;;;;;;4.95;2.40;;;11.10;99.90;;;;;;7229807;32;20644;-74
2022/03/15 13:08:59;;;;;;;4.75;2.40;;;11.30;99.90;;;;;;7229944;32;20207;-74
2022/03/15 13:13:02;;;;;;;6.72;2.67;;;11.30;99.90;;;;;;7227747;32;20178;-73
2022/03/15 13:17:05;;;;;;;4.75;2.37;;;11.30;99.90;;;;;;7238646;32;20113;-73
2022/03/15 13:21:10;;;;;;;7.30;2.33;;;11.40;99.90;;;;;;7227976;32;20150;-74
2022/03/15 13:25:16;;;;;;;3.28;2.05;;;11.50;99.90;;;;;;7230391;32;20203;-73
2022/03/15 13:29:20;;;;;;;4.00;2.00;;;11.50;99.90;;;;;;7228148;32;20172;-74
2022/03/15 13:33:34;;;;;;;5.85;2.00;;;11.50;99.90;;;;;;7227216;32;20172;-73
2022/03/15 13:37:36;;;;;;;5.75;2.28;;;11.70;99.90;;;;;;7225284;32;20117;-73
2022/03/15 13:41:51;;;;;;;5.85;2.12;;;11.50;99.90;;;;;;7223421;32;20600;-72
2022/03/15 13:45:54;;;;;;;4.22;1.90;;;11.80;99.90;;;;;;7220217;32;20109;-74
2022/03/15 13:49:58;;;;;;;5.53;2.15;;;11.90;99.90;;;;;;7221811;32;20129;-74
2022/03/15 13:54:12;;;;;;;8.43;1.92;;;12.00;99.90;;;;;;7220545;32;20261;-74
2022/03/15 13:59:09;;;;;;;6.40;2.17;;;12.60;99.90;;;;;;7223490;32;20248;-74
2022/03/15 14:03:12;;;;;;;5.30;2.10;;;13.00;99.90;;;;;;7232177;32;20156;-74
2022/03/15 14:07:22;;;;;;;4.53;2.17;;;13.00;99.90;;;;;;7223683;32;20116;-73
2022/03/15 14:11:35;;;;;;;6.60;2.80;;;13.40;99.90;;;;;;7227325;32;20584;-73
2022/03/15 14:15:37;;;;;;;3.30;1.55;;;13.50;99.90;;;;;;7229709;32;20165;-74
2022/03/15 14:19:44;;;;;;;3.92;1.87;;;13.00;99.90;;;;;;7223662;32;20211;-73
2022/03/15 14:23:57;;;;;;;5.50;2.20;;;12.70;99.90;;;;;;7226460;32;20117;-73
2022/03/15 14:28:04;;;;;;;5.28;1.55;;;12.50;99.90;;;;;;7227606;32;20109;-73
2022/03/15 14:32:08;;;;;;;6.28;2.10;;;12.60;99.90;;;;;;7228126;32;20131;-73
2022/03/15 14:36:12;;;;;;;4.25;1.52;;;12.40;99.90;;;;;;7225070;32;20157;-74
2022/03/15 14:40:14;;;;;;;7.03;1.15;;;12.40;99.90;;;;;;7224904;32;20240;-72
2022/03/15 14:44:19;;;;;;;4.72;1.58;;;12.30;99.90;;;;;;7236891;32;20743;-73
2022/03/15 14:48:29;;;;;;;4.20;1.48;;;12.30;99.90;;;;;;7225792;32;20120;-72
2022/03/15 14:52:35;;;;;;;1.45;1.33;;;12.30;99.90;;;;;;7222579;32;20112;-72
2022/03/15 14:56:38;;;;;;;4.90;1.58;;;12.20;99.90;;;;;;7227576;32;20197;-72
2022/03/15 15:00:49;;;;;;;4.75;2.17;;;12.30;99.90;;;;;;7225902;32;20104;-72
2022/03/15 15:05:11;;;;;;;4.12;1.83;;;12.20;99.90;;;;;;7224335;32;20166;-74
2022/03/15 15:09:14;;;;;;;4.12;1.40;;;12.20;99.90;;;;;;7227740;32;20454;-73
2022/03/15 15:13:16;;;;;;;3.53;1.40;;;12.20;99.90;;;;;;7231910;32;20110;-73
2022/03/15 15:17:20;;;;;;;3.28;1.12;;;12.30;99.90;;;;;;7214759;32;20758;-73
2022/03/15 15:21:24;;;;;;;4.60;1.45;;;12.40;99.90;;;;;;7223071;32;20109;-74
2022/03/15 15:25:32;;;;;;;5.75;1.50;;;12.40;99.90;;;;;;7223096;32;20117;-74
2022/03/15 15:29:40;;;;;;;3.97;1.40;;;12.20;99.90;;;;;;7229717;32;20807;-74
2022/03/15 15:33:42;;;;;;;5.25;1.62;;;12.10;99.90;;;;;;7225106;32;20142;-73
2022/03/15 15:37:58;;;;;;;4.33;2.13;;;11.30;99.90;;;;;;7227841;32;20174;-74
2022/03/15 15:42:01;;;;;;;4.47;1.50;;;11.10;99.90;;;;;;7235706;32;20821;-74
2022/03/15 15:46:04;;;;;;;5.97;1.70;;;11.00;99.90;;;;;;7224840;32;20592;-74
2022/03/15 15:50:09;;;;;;;6.95;2.17;;;10.80;99.90;;;;;;7228463;32;20176;-74
2022/03/15 15:54:10;;;;;;;6.82;1.73;;;10.60;99.90;;;;;;7214511;32;20231;-74
2022/03/15 15:58:12;;;;;;;3.87;1.70;;;10.50;99.90;;;;;;7223884;32;20159;-74
2022/03/15 16:02:16;;;;;;;4.10;1.30;;;10.50;99.90;;;;;;7229147;32;20117;-73
2022/03/15 16:06:18;;;;;;;4.65;1.67;;;10.50;99.90;;;;;;7229217;32;20121;-73
2022/03/15 16:10:21;;;;;;;5.70;1.48;;;10.70;99.90;;;;;;7226587;32;20275;-74
2022/03/15 16:14:22;;;;;;;3.30;1.73;;;10.70;99.90;;;;;;7231483;32;20315;-74
2022/03/15 16:18:44;;;;;;;5.97;1.87;;;10.70;99.90;;;;;;7222956;32;20775;-74
2022/03/15 16:22:46;;;;;;;3.97;1.60;;;10.70;99.90;;;;;;7228306;32;20128;-74
2022/03/15 16:26:48;;;;;;;3.85;1.95;;;10.60;99.90;;;;;;7229670;32;20121;-74
2022/03/15 16:30:51;;;;;;;5.03;1.73;;;10.60;99.90;;;;;;7228347;32;20275;-74
2022/03/15 16:34:55;;;;;;;5.05;1.87;;;10.50;99.90;;;;;;7226654;32;20635;-74
2022/03/15 16:38:56;;;;;;;4.05;1.75;;;10.50;99.90;;;;;;7227960;32;20179;-74
2022/03/15 16:43:00;;;;;;;5.25;2.33;;;10.40;99.90;;;;;;7227858;32;20207;-73
2022/03/15 16:51:51;;;;;;;5.03;1.90;;;10.30;99.90;;;;;;7220178;32;20136;-74
2022/03/15 16:55:53;;;;;;;3.62;1.50;;;10.20;99.90;;;;;;7225270;32;20117;-74
2022/03/15 16:59:59;;;;;;;5.45;2.10;;;10.20;99.90;;;;;;7229871;32;20113;-74
2022/03/15 17:08:22;;;;;;;4.75;2.60;;;10.00;99.90;;;;;;7228758;32;20174;-74
2022/03/15 17:12:24;;;;;;;5.93;2.15;;;9.90;99.90;;;;;;7229954;32;20109;-74
2022/03/15 17:16:26;;;;;;;6.47;2.22;;;9.80;99.90;;;;;;7228567;32;20147;-74
2022/03/15 17:20:29;;;;;;;9.07;2.10;;;9.70;99.90;;;;;;7228194;32;20136;-74
2022/03/15 17:24:32;;;;;;;6.28;2.10;;;9.50;99.90;;;;;;7230839;32;20775;-73
2022/03/15 17:28:40;;;;;;;4.53;2.03;;;9.50;99.90;;;;;;7232130;32;20105;-74
2022/03/15 17:32:44;;;;;;;4.00;2.10;;;9.40;99.90;;;;;;7237305;32;20113;-74
2022/03/15 17:36:46;;;;;;;3.92;2.00;;;9.30;99.90;;;;;;7229953;32;20230;-74
2022/03/15 17:40:54;;;;;;;3.85;1.70;;;9.30;99.90;;;;;;7231614;32;20146;-73
2022/03/15 17:45:01;;;;;;;5.30;2.25;;;9.10;99.90;;;;;;7229126;32;20219;-74
2022/03/15 17:49:19;;;;;;;3.05;1.90;;;9.00;99.90;;;;;;7222771;32;20198;-74
2022/03/15 17:53:21;;;;;;;4.62;2.05;;;8.90;99.90;;;;;;7226799;32;20230;-72
2022/03/15 17:57:25;;;;;;;4.00;2.33;;;8.80;99.90;;;;;;7228587;32;20224;-74
2022/03/15 18:01:31;;;;;;;7.03;3.20;;;8.60;99.90;;;;;;7233738;32;20578;-74
2022/03/15 18:05:33;;;;;;;9.00;3.27;;;8.50;99.90;;;;;;7238620;32;20105;-74
2022/03/15 18:09:39;;;;;;;6.45;2.67;;;8.40;99.90;;;;;;7235945;32;20363;-74
2022/03/15 18:13:40;;;;;;;5.45;2.90;;;8.30;99.90;;;;;;7228158;32;20211;-74
2022/03/15 18:17:44;;;;;;;6.70;4.37;;;8.20;99.90;;;;;;7224332;32;20116;-74
2022/03/15 18:21:54;;;;;;;6.72;3.22;;;8.00;99.90;;;;;;7219237;32;20184;-74
2022/03/15 18:25:59;;;;;;;5.12;3.42;;;7.90;99.90;;;;;;7225959;32;20435;-74
2022/03/15 18:30:01;;;;;;;7.53;3.60;;;7.90;99.90;;;;;;7226089;32;20836;-73
2022/03/15 18:34:04;;;;;;;7.47;3.12;;;7.80;99.90;;;;;;7228733;32;21597;-74
2022/03/15 18:38:08;;;;;;;7.60;3.53;;;7.70;99.90;;;;;;7225494;32;20124;-75
2022/03/15 18:42:11;;;;;;;6.68;3.30;;;7.60;99.90;;;;;;7226973;32;20109;-74
2022/03/15 18:46:30;;;;;;;5.47;3.78;;;7.50;99.90;;;;;;7225516;32;21994;-74
2022/03/15 18:50:34;;;;;;;5.70;3.67;;;7.50;99.90;;;;;;7235830;32;20676;-72
2022/03/15 18:54:36;;;;;;;7.25;3.33;;;7.30;99.90;;;;;;7228015;32;20155;-77
2022/03/15 18:58:38;;;;;;;7.07;3.72;;;7.20;99.90;;;;;;7239217;32;20649;-73
2022/03/15 19:02:40;;;;;;;7.43;3.30;;;7.00;99.90;;;;;;7230015;32;20580;-74
2022/03/15 19:06:43;;;;;;;4.20;2.60;;;6.90;99.90;;;;;;7227520;32;20204;-75
2022/03/15 19:10:46;;;;;;;6.78;2.78;;;6.70;99.90;;;;;;7214110;32;20121;-75
2022/03/15 19:14:48;;;;;;;7.53;2.75;;;6.60;99.90;;;;;;7220178;32;20176;-76
2022/03/15 19:18:54;;;;;;;9.00;3.05;;;6.50;99.90;;;;;;7225437;32;20185;-77
2022/03/15 19:22:56;;;;;;;7.07;2.83;;;6.40;99.90;;;;;;7220839;32;20135;-73
2022/03/15 19:27:03;;;;;;;4.97;3.12;;;6.20;99.90;;;;;;7227533;32;20234;-73
2022/03/15 19:31:21;;;;;;;7.78;3.20;;;6.10;99.90;;;;;;7224576;32;20105;-75
2022/03/15 19:35:23;;;;;;;9.73;3.37;;;6.00;99.90;;;;;;7225849;32;20175;-76
2022/03/15 19:39:24;;;;;;;7.45;3.55;;;5.90;99.90;;;;;;7232579;32;20131;-76
2022/03/15 19:48:30;;;;;;;7.15;3.60;;;5.80;99.90;;;;;;7218666;32;20105;-74
2022/03/15 19:52:47;;;;;;;5.93;4.20;;;5.80;99.90;;;;;;7227917;32;20203;-76
2022/03/15 19:56:49;;;;;;;9.02;3.53;;;5.80;99.90;;;;;;7224721;32;20168;-75
2022/03/15 20:00:52;;;;;;;7.37;3.70;;;5.70;99.90;;;;;;7233209;32;20573;-73
2022/03/15 20:09:58;;;;;;;10.98;3.80;;;5.60;99.90;;;;;;7229924;32;21273;-78
2022/03/15 20:14:00;;;;;;;8.23;4.20;;;5.60;99.90;;;;;;7219861;32;20313;-75
2022/03/15 20:22:27;;;;;;;8.25;3.85;;;5.30;99.90;;;;;;7230079;32;20101;-76
2022/03/15 20:26:29;;;;;;;7.97;4.05;;;5.20;99.90;;;;;;7232897;32;20598;-77
2022/03/15 20:30:33;;;;;;;5.78;3.58;;;5.10;99.90;;;;;;7232206;32;20208;-76
2022/03/15 20:34:35;;;;;;;10.63;4.20;;;4.90;99.90;;;;;;7231942;32;20163;-75
2022/03/15 20:38:37;;;;;;;10.20;4.35;;;4.80;99.90;;;;;;7232319;32;20184;-75
2022/03/15 20:47:02;;;;;;;12.02;5.25;;;4.70;99.90;;;;;;7225661;32;20502;-76
2022/03/15 20:51:06;;;;;;;10.25;5.28;;;4.60;99.90;;;;;;7228129;32;20212;-75
2022/03/15 20:55:08;;;;;;;9.95;6.28;;;4.50;99.90;;;;;;7230199;32;20550;-75
2022/03/15 20:59:14;;;;;;;8.02;4.50;;;4.40;99.90;;;;;;7241116;32;20127;-75
2022/03/15 21:03:25;;;;;;;7.70;4.60;;;4.30;99.90;;;;;;7225921;32;20206;-76
2022/03/15 21:07:34;;;;;;;7.80;4.57;;;4.20;99.90;;;;;;7248798;32;20478;-76
2022/03/15 21:11:38;;;;;;;11.27;4.60;;;4.00;99.90;;;;;;7234633;32;20105;-77
2022/03/15 21:15:40;;;;;;;10.32;4.53;;;4.00;99.90;;;;;;7232206;32;20142;-76
2022/03/15 21:19:50;;;;;;;10.32;4.55;;;3.90;99.90;;;;;;7227512;32;20124;-75
2022/03/15 21:23:53;;;;;;;10.60;5.10;;;3.80;99.90;;;;;;7227469;32;20592;-76
2022/03/15 21:27:55;;;;;;;10.65;5.43;;;3.70;99.90;;;;;;7234766;32;20198;-74
2022/03/15 21:31:59;;;;;;;8.18;4.75;;;3.60;99.90;;;;;;7226000;32;20644;-74
2022/03/15 21:36:02;;;;;;;9.68;5.18;;;3.50;99.90;;;;;;7228300;32;20821;-75
2022/03/15 21:40:04;;;;;;;9.80;4.90;;;3.60;99.90;;;;;;7226872;32;20233;-76
2022/03/15 21:44:06;;;;;;;9.55;5.65;;;3.40;99.90;;;;;;7228429;32;20517;-76
2022/03/15 21:48:09;;;;;;;10.15;5.40;;;3.40;99.90;;;;;;7225822;32;20154;-75
2022/03/15 21:52:11;;;;;;;10.90;5.60;;;3.40;99.90;;;;;;7227470;32;20347;-75
2022/03/15 21:56:15;;;;;;;8.80;5.25;;;3.30;99.90;;;;;;7226123;32;20591;-75
2022/03/15 22:00:17;;;;;;;8.63;5.35;;;3.30;99.90;;;;;;7224558;32;20105;-75
2022/03/15 22:04:20;;;;;;;9.80;5.40;;;3.20;99.90;;;;;;7228253;32;20215;-75
2022/03/15 22:08:22;;;;;;;7.93;5.43;;;3.20;99.90;;;;;;7226662;32;20657;-75
2022/03/15 22:12:25;;;;;;;8.68;5.57;;;3.10;99.90;;;;;;7229723;32;20101;-74
2022/03/15 22:16:27;;;;;;;9.82;6.00;;;3.00;99.90;;;;;;7227112;32;20223;-73
2022/03/15 22:20:29;;;;;;;12.07;5.90;;;3.00;99.90;;;;;;7225594;32;20850;-74
2022/03/15 22:24:31;;;;;;;10.27;5.62;;;2.90;99.90;;;;;;7242663;32;20142;-74
2022/03/15 22:28:33;;;;;;;10.70;5.85;;;2.80;99.90;;;;;;7226800;32;20209;-74
2022/03/15 23:19:37;;;;;;;13.38;6.40;;;2.30;99.90;;;;;;7235530;32;20131;-75
2022/03/15 23:23:39;;;;;;;9.50;6.32;;;2.20;99.90;;;;;;7233271;32;20192;-75
2022/03/15 23:27:44;;;;;;;10.98;6.53;;;2.20;99.90;;;;;;7230733;32;20135;-75
2022/03/15 23:31:46;;;;;;;10.25;6.78;;;2.20;99.90;;;;;;7232544;32;20501;-75
2022/03/15 23:35:48;;;;;;;9.80;6.87;;;2.20;99.90;;;;;;7235491;32;20582;-75
2022/03/15 23:39:49;;;;;;;11.02;7.25;;;2.10;99.90;;;;;;7235101;32;20180;-75
2022/03/15 23:43:51;;;;;;;12.02;7.40;;;2.10;99.90;;;;;;7232762;32;20237;-75
2022/03/15 23:47:53;;;;;;;14.43;6.75;;;2.00;99.90;;;;;;7232848;32;20109;-74
2022/03/15 23:51:55;;;;;;;10.95;6.85;;;1.90;99.90;;;;;;7234038;32;20406;-74
2022/03/15 23:55:57;;;;;;;11.40;7.15;;;1.90;99.90;;;;;;7233902;32;20196;-74
2022/03/15 23:59:59;;;;;;;11.70;7.93;;;1.90;99.90;;;;;;7232030;32;20188;-74
